sensor_id;sensor_type;location;lat;lon;timestamp;P1;durP1;ratioP1;P2;durP2;ratioP2
30458;SDS011;17254;50.976;7.034;2023-04-15T00:00:00;11.80;;;8.87;;
30458;SDS011;17254;50.976;7.034;2023-04-15T00:00:06;11.52;;;9.08;;
30458;SDS011;17254;50.976;7.034;2023-04-15T00:00:23;11.09;;;9.30;;
30458;SDS011;17254;50.976;7.034;2023-04-15T00:00:30;10.32;;;9.24;;
30458;SDS011;17254;50.976;7.034;2023-04-15T00:00:35;10.23;;;9.10;;
30458;SDS011;17254;50.976;7.034;2023-04-15T00:00:41;10.98;;;9.05;;
30458;SDS011;17254;50.976;7.034;2023-04-15T00:00:47;10.80;;;9.07;;
30458;SDS011;17254;50.976;7.034;2023-04-15T00:00:55;10.66;;;9.12;;
30458;SDS011;17254;50.976;7.034;2023-04-15T00:01:01;10.52;;;9.13;;
30458;SDS011;17254;50.976;7.034;2023-04-15T00:01:07;10.88;;;9.22;;
30458;SDS011;17254;50.976;7.034;2023-04-15T00:01:14;10.45;;;9.18;;
30458;SDS011;17254;50.976;7.034;2023-04-15T00:01:23;11.56;;;9.21;;
30458;SDS011;17254;50.976;7.034;2023-04-15T00:01:29;11.65;;;9.05;;
30458;SDS011;17254;50.976;7.034;2023-04-15T00:01:38;11.70;;;8.95;;
30458;SDS011;17254;50.976;7.034;2023-04-15T00:01:43;11.35;;;8.75;;
30458;SDS011;17254;50.976;7.034;2023-04-15T00:01:51;10.50;;;8.54;;
30458;SDS011;17254;50.976;7.034;2023-04-15T00:01:57;9.85;;;8.48;;
30458;SDS011;17254;50.976;7.034;2023-04-15T00:02:12;10.24;;;8.66;;
30458;SDS011;17254;50.976;7.034;2023-04-15T00:02:19;10.26;;;8.68;;
30458;SDS011;17254;50.976;7.034;2023-04-15T00:02:25;10.87;;;8.93;;
30458;SDS011;17254;50.976;7.034;2023-04-15T00:02:31;10.57;;;8.88;;
30458;SDS011;17254;50.976;7.034;2023-04-15T00:02:37;10.38;;;8.98;;
30458;SDS011;17254;50.976;7.034;2023-04-15T00:02:43;10.27;;;9.07;;
30458;SDS011;17254;50.976;7.034;2023-04-15T00:02:48;10.35;;;9.18;;
30458;SDS011;17254;50.976;7.034;2023-04-15T00:02:54;10.27;;;9.13;;
30458;SDS011;17254;50.976;7.034;2023-04-15T00:03:00;10.18;;;9.07;;
30458;SDS011;17254;50.976;7.034;2023-04-15T00:03:06;10.30;;;9.02;;
30458;SDS011;17254;50.976;7.034;2023-04-15T00:03:12;10.23;;;9.10;;
30458;SDS011;17254;50.976;7.034;2023-04-15T00:03:19;10.47;;;9.30;;
30458;SDS011;17254;50.976;7.034;2023-04-15T00:03:25;10.40;;;9.30;;
30458;SDS011;17254;50.976;7.034;2023-04-15T00:03:32;10.42;;;9.24;;
30458;SDS011;17254;50.976;7.034;2023-04-15T00:03:38;10.57;;;9.10;;
30458;SDS011;17254;50.976;7.034;2023-04-15T00:03:44;11.57;;;8.93;;
30458;SDS011;17254;50.976;7.034;2023-04-15T00:03:50;12.10;;;8.83;;
30458;SDS011;17254;50.976;7.034;2023-04-15T00:03:57;11.80;;;8.73;;
30458;SDS011;17254;50.976;7.034;2023-04-15T00:04:03;11.95;;;8.82;;
30458;SDS011;17254;50.976;7.034;2023-04-15T00:04:09;12.63;;;9.00;;
30458;SDS011;17254;50.976;7.034;2023-04-15T00:04:15;11.93;;;8.88;;
30458;SDS011;17254;50.976;7.034;2023-04-15T00:04:21;11.93;;;8.60;;
30458;SDS011;17254;50.976;7.034;2023-04-15T00:04:27;12.25;;;8.68;;
30458;SDS011;17254;50.976;7.034;2023-04-15T00:04:35;11.75;;;8.53;;
30458;SDS011;17254;50.976;7.034;2023-04-15T00:04:41;10.80;;;8.27;;
30458;SDS011;17254;50.976;7.034;2023-04-15T00:04:47;10.15;;;8.57;;
30458;SDS011;17254;50.976;7.034;2023-04-15T00:04:53;9.93;;;8.88;;
30458;SDS011;17254;50.976;7.034;2023-04-15T00:04:59;10.10;;;9.00;;
30458;SDS011;17254;50.976;7.034;2023-04-15T00:05:05;10.25;;;9.15;;
30458;SDS011;17254;50.976;7.034;2023-04-15T00:05:11;10.20;;;9.10;;
30458;SDS011;17254;50.976;7.034;2023-04-15T00:05:17;10.48;;;8.73;;
30458;SDS011;17254;50.976;7.034;2023-04-15T00:05:23;10.30;;;8.48;;
30458;SDS011;17254;50.976;7.034;2023-04-15T00:05:29;9.67;;;8.40;;
30458;SDS011;17254;50.976;7.034;2023-04-15T00:05:35;10.26;;;8.46;;
30458;SDS011;17254;50.976;7.034;2023-04-15T00:05:41;10.40;;;8.57;;
30458;SDS011;17254;50.976;7.034;2023-04-15T00:05:47;10.15;;;8.65;;
30458;SDS011;17254;50.976;7.034;2023-04-15T00:05:53;10.07;;;8.70;;
30458;SDS011;17254;50.976;7.034;2023-04-15T00:05:59;10.40;;;8.63;;
30458;SDS011;17254;50.976;7.034;2023-04-15T00:06:06;10.04;;;8.42;;
30458;SDS011;17254;50.976;7.034;2023-04-15T00:06:12;10.27;;;8.37;;
30458;SDS011;17254;50.976;7.034;2023-04-15T00:06:18;9.97;;;8.30;;
30458;SDS011;17254;50.976;7.034;2023-04-15T00:06:24;10.20;;;8.25;;
30458;SDS011;17254;50.976;7.034;2023-04-15T00:06:30;10.75;;;8.43;;
30458;SDS011;17254;50.976;7.034;2023-04-15T00:06:36;11.02;;;8.50;;
30458;SDS011;17254;50.976;7.034;2023-04-15T00:06:42;10.32;;;8.38;;
30458;SDS011;17254;50.976;7.034;2023-04-15T00:06:55;10.46;;;8.44;;
30458;SDS011;17254;50.976;7.034;2023-04-15T00:07:01;10.20;;;8.43;;
30458;SDS011;17254;50.976;7.034;2023-04-15T00:07:07;10.00;;;8.32;;
30458;SDS011;17254;50.976;7.034;2023-04-15T00:07:13;10.77;;;8.43;;
30458;SDS011;17254;50.976;7.034;2023-04-15T00:07:20;11.05;;;8.17;;
30458;SDS011;17254;50.976;7.034;2023-04-15T00:07:26;10.70;;;8.00;;
30458;SDS011;17254;50.976;7.034;2023-04-15T00:07:33;9.92;;;8.03;;
30458;SDS011;17254;50.976;7.034;2023-04-15T00:07:39;9.80;;;8.20;;
30458;SDS011;17254;50.976;7.034;2023-04-15T00:07:45;9.35;;;8.18;;
30458;SDS011;17254;50.976;7.034;2023-04-15T00:07:51;9.45;;;8.38;;
30458;SDS011;17254;50.976;7.034;2023-04-15T00:07:57;9.65;;;8.43;;
30458;SDS011;17254;50.976;7.034;2023-04-15T00:08:05;9.40;;;8.03;;
30458;SDS011;17254;50.976;7.034;2023-04-15T00:08:12;10.86;;;8.14;;
30458;SDS011;17254;50.976;7.034;2023-04-15T00:08:18;11.20;;;8.27;;
30458;SDS011;17254;50.976;7.034;2023-04-15T00:08:24;10.83;;;8.17;;
30458;SDS011;17254;50.976;7.034;2023-04-15T00:08:30;11.40;;;8.32;;
30458;SDS011;17254;50.976;7.034;2023-04-15T00:08:36;12.15;;;8.65;;
30458;SDS011;17254;50.976;7.034;2023-04-15T00:08:42;11.48;;;8.52;;
30458;SDS011;17254;50.976;7.034;2023-04-15T00:08:48;11.45;;;8.45;;
30458;SDS011;17254;50.976;7.034;2023-04-15T00:08:55;12.70;;;8.77;;
30458;SDS011;17254;50.976;7.034;2023-04-15T00:09:01;12.68;;;8.68;;
30458;SDS011;17254;50.976;7.034;2023-04-15T00:09:07;11.73;;;8.43;;
30458;SDS011;17254;50.976;7.034;2023-04-15T00:09:13;11.07;;;8.40;;
30458;SDS011;17254;50.976;7.034;2023-04-15T00:09:19;11.30;;;8.40;;
30458;SDS011;17254;50.976;7.034;2023-04-15T00:09:25;11.00;;;8.23;;
30458;SDS011;17254;50.976;7.034;2023-04-15T00:09:31;11.30;;;8.43;;
30458;SDS011;17254;50.976;7.034;2023-04-15T00:09:37;11.60;;;8.47;;
30458;SDS011;17254;50.976;7.034;2023-04-15T00:09:44;11.96;;;8.82;;
30458;SDS011;17254;50.976;7.034;2023-04-15T00:09:50;11.63;;;9.00;;
30458;SDS011;17254;50.976;7.034;2023-04-15T00:09:59;11.01;;;8.87;;
30458;SDS011;17254;50.976;7.034;2023-04-15T00:10:06;10.60;;;8.58;;
30458;SDS011;17254;50.976;7.034;2023-04-15T00:10:13;11.20;;;8.13;;
30458;SDS011;17254;50.976;7.034;2023-04-15T00:10:19;11.05;;;8.02;;
30458;SDS011;17254;50.976;7.034;2023-04-15T00:10:25;11.05;;;8.20;;
30458;SDS011;17254;50.976;7.034;2023-04-15T00:10:31;10.82;;;8.18;;
30458;SDS011;17254;50.976;7.034;2023-04-15T00:10:37;11.40;;;8.30;;
30458;SDS011;17254;50.976;7.034;2023-04-15T00:10:42;10.20;;;8.27;;
30458;SDS011;17254;50.976;7.034;2023-04-15T00:10:51;10.10;;;8.10;;
30458;SDS011;17254;50.976;7.034;2023-04-15T00:10:57;10.20;;;8.00;;
30458;SDS011;17254;50.976;7.034;2023-04-15T00:11:06;10.63;;;7.97;;
30458;SDS011;17254;50.976;7.034;2023-04-15T00:11:12;10.55;;;8.00;;
30458;SDS011;17254;50.976;7.034;2023-04-15T00:11:19;10.37;;;7.97;;
30458;SDS011;17254;50.976;7.034;2023-04-15T00:11:25;10.23;;;8.10;;
30458;SDS011;17254;50.976;7.034;2023-04-15T00:11:30;9.57;;;8.05;;
30458;SDS011;17254;50.976;7.034;2023-04-15T00:11:36;9.63;;;8.23;;
30458;SDS011;17254;50.976;7.034;2023-04-15T00:11:42;9.60;;;8.27;;
30458;SDS011;17254;50.976;7.034;2023-04-15T00:11:49;9.65;;;8.40;;
30458;SDS011;17254;50.976;7.034;2023-04-15T00:11:55;9.76;;;8.36;;
30458;SDS011;17254;50.976;7.034;2023-04-15T00:12:01;10.27;;;8.43;;
30458;SDS011;17254;50.976;7.034;2023-04-15T00:12:07;9.90;;;8.10;;
30458;SDS011;17254;50.976;7.034;2023-04-15T00:12:14;9.93;;;8.10;;
30458;SDS011;17254;50.976;7.034;2023-04-15T00:12:20;9.95;;;8.05;;
30458;SDS011;17254;50.976;7.034;2023-04-15T00:12:26;10.55;;;8.15;;
30458;SDS011;17254;50.976;7.034;2023-04-15T00:12:32;9.98;;;8.02;;
30458;SDS011;17254;50.976;7.034;2023-04-15T00:12:38;10.15;;;8.15;;
30458;SDS011;17254;50.976;7.034;2023-04-15T00:12:45;10.80;;;8.23;;
30458;SDS011;17254;50.976;7.034;2023-04-15T00:12:51;11.00;;;8.20;;
30458;SDS011;17254;50.976;7.034;2023-04-15T00:12:57;10.67;;;7.97;;
30458;SDS011;17254;50.976;7.034;2023-04-15T00:13:03;11.10;;;8.10;;
30458;SDS011;17254;50.976;7.034;2023-04-15T00:13:08;11.98;;;8.27;;
30458;SDS011;17254;50.976;7.034;2023-04-15T00:13:14;11.47;;;8.13;;
30458;SDS011;17254;50.976;7.034;2023-04-15T00:13:21;11.30;;;8.10;;
30458;SDS011;17254;50.976;7.034;2023-04-15T00:13:26;11.07;;;8.15;;
30458;SDS011;17254;50.976;7.034;2023-04-15T00:13:33;10.43;;;8.10;;
30458;SDS011;17254;50.976;7.034;2023-04-15T00:13:39;9.80;;;7.90;;
30458;SDS011;17254;50.976;7.034;2023-04-15T00:13:45;10.07;;;7.90;;
30458;SDS011;17254;50.976;7.034;2023-04-15T00:13:51;10.27;;;7.90;;
30458;SDS011;17254;50.976;7.034;2023-04-15T00:13:57;10.47;;;7.90;;
30458;SDS011;17254;50.976;7.034;2023-04-15T00:14:03;10.45;;;8.00;;
30458;SDS011;17254;50.976;7.034;2023-04-15T00:14:10;10.48;;;8.26;;
30458;SDS011;17254;50.976;7.034;2023-04-15T00:14:16;10.80;;;8.35;;
30458;SDS011;17254;50.976;7.034;2023-04-15T00:14:22;10.77;;;8.50;;
30458;SDS011;17254;50.976;7.034;2023-04-15T00:14:28;10.67;;;8.47;;
30458;SDS011;17254;50.976;7.034;2023-04-15T00:14:34;11.02;;;8.28;;
30458;SDS011;17254;50.976;7.034;2023-04-15T00:14:40;11.60;;;7.97;;
30458;SDS011;17254;50.976;7.034;2023-04-15T00:14:46;11.25;;;7.90;;
30458;SDS011;17254;50.976;7.034;2023-04-15T00:14:52;11.07;;;7.70;;
30458;SDS011;17254;50.976;7.034;2023-04-15T00:14:58;11.63;;;7.73;;
30458;SDS011;17254;50.976;7.034;2023-04-15T00:15:05;11.48;;;7.78;;
30458;SDS011;17254;50.976;7.034;2023-04-15T00:15:14;12.33;;;8.00;;
30458;SDS011;17254;50.976;7.034;2023-04-15T00:15:20;11.88;;;7.90;;
30458;SDS011;17254;50.976;7.034;2023-04-15T00:15:26;11.40;;;7.88;;
30458;SDS011;17254;50.976;7.034;2023-04-15T00:15:32;11.45;;;8.00;;
30458;SDS011;17254;50.976;7.034;2023-04-15T00:15:38;11.48;;;7.93;;
30458;SDS011;17254;50.976;7.034;2023-04-15T00:15:44;10.48;;;7.68;;
30458;SDS011;17254;50.976;7.034;2023-04-15T00:15:50;10.43;;;7.87;;
30458;SDS011;17254;50.976;7.034;2023-04-15T00:15:56;10.90;;;7.97;;
30458;SDS011;17254;50.976;7.034;2023-04-15T00:16:02;10.93;;;7.83;;
30458;SDS011;17254;50.976;7.034;2023-04-15T00:16:08;10.60;;;7.73;;
30458;SDS011;17254;50.976;7.034;2023-04-15T00:16:14;9.77;;;7.80;;
30458;SDS011;17254;50.976;7.034;2023-04-15T00:16:20;9.53;;;7.60;;
30458;SDS011;17254;50.976;7.034;2023-04-15T00:16:27;9.88;;;7.60;;
30458;SDS011;17254;50.976;7.034;2023-04-15T00:16:33;9.68;;;7.52;;
30458;SDS011;17254;50.976;7.034;2023-04-15T00:16:39;8.80;;;7.45;;
30458;SDS011;17254;50.976;7.034;2023-04-15T00:16:46;9.17;;;7.53;;
30458;SDS011;17254;50.976;7.034;2023-04-15T00:16:59;9.74;;;7.82;;
30458;SDS011;17254;50.976;7.034;2023-04-15T00:17:05;11.37;;;8.30;;
30458;SDS011;17254;50.976;7.034;2023-04-15T00:17:11;11.37;;;8.13;;
30458;SDS011;17254;50.976;7.034;2023-04-15T00:17:17;11.05;;;8.25;;
30458;SDS011;17254;50.976;7.034;2023-04-15T00:17:23;11.13;;;8.25;;
30458;SDS011;17254;50.976;7.034;2023-04-15T00:17:29;9.68;;;8.20;;
30458;SDS011;17254;50.976;7.034;2023-04-15T00:17:35;9.18;;;8.10;;
30458;SDS011;17254;50.976;7.034;2023-04-15T00:17:43;9.68;;;8.44;;
30458;SDS011;17254;50.976;7.034;2023-04-15T00:17:49;9.80;;;8.33;;
30458;SDS011;17254;50.976;7.034;2023-04-15T00:17:55;9.63;;;8.20;;
30458;SDS011;17254;50.976;7.034;2023-04-15T00:18:02;9.37;;;8.23;;
30458;SDS011;17254;50.976;7.034;2023-04-15T00:18:08;9.38;;;8.07;;
30458;SDS011;17254;50.976;7.034;2023-04-15T00:18:14;10.05;;;8.25;;
30458;SDS011;17254;50.976;7.034;2023-04-15T00:18:20;10.77;;;8.47;;
30458;SDS011;17254;50.976;7.034;2023-04-15T00:18:26;10.87;;;8.40;;
30458;SDS011;17254;50.976;7.034;2023-04-15T00:18:33;11.00;;;8.45;;
30458;SDS011;17254;50.976;7.034;2023-04-15T00:18:39;12.10;;;8.50;;
30458;SDS011;17254;50.976;7.034;2023-04-15T00:18:46;11.30;;;8.25;;
30458;SDS011;17254;50.976;7.034;2023-04-15T00:18:52;11.02;;;8.13;;
30458;SDS011;17254;50.976;7.034;2023-04-15T00:18:57;10.95;;;8.07;;
30458;SDS011;17254;50.976;7.034;2023-04-15T00:19:03;10.53;;;7.83;;
30458;SDS011;17254;50.976;7.034;2023-04-15T00:19:09;9.73;;;7.90;;
30458;SDS011;17254;50.976;7.034;2023-04-15T00:19:15;9.35;;;7.93;;
30458;SDS011;17254;50.976;7.034;2023-04-15T00:19:21;9.43;;;7.85;;
30458;SDS011;17254;50.976;7.034;2023-04-15T00:19:28;9.62;;;7.94;;
30458;SDS011;17254;50.976;7.034;2023-04-15T00:19:34;9.33;;;8.10;;
30458;SDS011;17254;50.976;7.034;2023-04-15T00:19:40;9.55;;;7.82;;
30458;SDS011;17254;50.976;7.034;2023-04-15T00:19:46;9.26;;;7.56;;
30458;SDS011;17254;50.976;7.034;2023-04-15T00:19:52;8.85;;;7.55;;
30458;SDS011;17254;50.976;7.034;2023-04-15T00:19:58;8.67;;;7.37;;
30458;SDS011;17254;50.976;7.034;2023-04-15T00:20:05;8.80;;;7.38;;
30458;SDS011;17254;50.976;7.034;2023-04-15T00:20:11;8.63;;;7.50;;
30458;SDS011;17254;50.976;7.034;2023-04-15T00:20:17;9.45;;;7.65;;
30458;SDS011;17254;50.976;7.034;2023-04-15T00:20:24;9.40;;;7.77;;
30458;SDS011;17254;50.976;7.034;2023-04-15T00:20:29;10.02;;;8.02;;
30458;SDS011;17254;50.976;7.034;2023-04-15T00:20:35;9.97;;;8.00;;
30458;SDS011;17254;50.976;7.034;2023-04-15T00:20:41;9.98;;;8.25;;
30458;SDS011;17254;50.976;7.034;2023-04-15T00:20:47;10.23;;;8.40;;
30458;SDS011;17254;50.976;7.034;2023-04-15T00:20:54;10.57;;;8.23;;
30458;SDS011;17254;50.976;7.034;2023-04-15T00:21:00;10.88;;;8.05;;
30458;SDS011;17254;50.976;7.034;2023-04-15T00:21:07;11.30;;;8.07;;
30458;SDS011;17254;50.976;7.034;2023-04-15T00:21:13;11.73;;;7.90;;
30458;SDS011;17254;50.976;7.034;2023-04-15T00:21:20;10.98;;;7.72;;
30458;SDS011;17254;50.976;7.034;2023-04-15T00:21:26;10.98;;;7.90;;
30458;SDS011;17254;50.976;7.034;2023-04-15T00:21:33;10.44;;;7.96;;
30458;SDS011;17254;50.976;7.034;2023-04-15T00:21:39;10.07;;;7.93;;
30458;SDS011;17254;50.976;7.034;2023-04-15T00:21:45;9.90;;;8.03;;
30458;SDS011;17254;50.976;7.034;2023-04-15T00:21:51;9.80;;;8.30;;
30458;SDS011;17254;50.976;7.034;2023-04-15T00:21:57;10.00;;;8.35;;
30458;SDS011;17254;50.976;7.034;2023-04-15T00:22:03;10.10;;;8.20;;
30458;SDS011;17254;50.976;7.034;2023-04-15T00:22:10;10.13;;;8.23;;
30458;SDS011;17254;50.976;7.034;2023-04-15T00:22:16;10.00;;;8.20;;
30458;SDS011;17254;50.976;7.034;2023-04-15T00:22:22;9.88;;;7.88;;
30458;SDS011;17254;50.976;7.034;2023-04-15T00:22:29;10.88;;;7.94;;
30458;SDS011;17254;50.976;7.034;2023-04-15T00:22:35;10.93;;;8.00;;
30458;SDS011;17254;50.976;7.034;2023-04-15T00:22:41;10.70;;;7.80;;
30458;SDS011;17254;50.976;7.034;2023-04-15T00:22:47;10.67;;;7.83;;
30458;SDS011;17254;50.976;7.034;2023-04-15T00:22:52;10.65;;;7.78;;
30458;SDS011;17254;50.976;7.034;2023-04-15T00:22:58;9.25;;;7.63;;
30458;SDS011;17254;50.976;7.034;2023-04-15T00:23:04;8.90;;;7.50;;
30458;SDS011;17254;50.976;7.034;2023-04-15T00:23:10;8.80;;;7.65;;
30458;SDS011;17254;50.976;7.034;2023-04-15T00:23:16;8.77;;;7.57;;
30458;SDS011;17254;50.976;7.034;2023-04-15T00:23:22;9.15;;;7.60;;
30458;SDS011;17254;50.976;7.034;2023-04-15T00:23:28;9.33;;;7.70;;
30458;SDS011;17254;50.976;7.034;2023-04-15T00:23:34;10.20;;;7.85;;
30458;SDS011;17254;50.976;7.034;2023-04-15T00:23:40;9.94;;;7.60;;
30458;SDS011;17254;50.976;7.034;2023-04-15T00:23:46;10.00;;;7.78;;
30458;SDS011;17254;50.976;7.034;2023-04-15T00:23:56;9.34;;;7.49;;
30458;SDS011;17254;50.976;7.034;2023-04-15T00:24:02;8.48;;;7.18;;
30458;SDS011;17254;50.976;7.034;2023-04-15T00:24:08;8.63;;;7.30;;
30458;SDS011;17254;50.976;7.034;2023-04-15T00:24:14;8.45;;;7.30;;
30458;SDS011;17254;50.976;7.034;2023-04-15T00:24:20;8.55;;;7.15;;
30458;SDS011;17254;50.976;7.034;2023-04-15T00:24:26;8.65;;;7.22;;
30458;SDS011;17254;50.976;7.034;2023-04-15T00:24:32;8.57;;;7.35;;
30458;SDS011;17254;50.976;7.034;2023-04-15T00:24:38;8.60;;;7.57;;
30458;SDS011;17254;50.976;7.034;2023-04-15T00:24:44;8.90;;;7.68;;
30458;SDS011;17254;50.976;7.034;2023-04-15T00:24:51;9.37;;;8.00;;
30458;SDS011;17254;50.976;7.034;2023-04-15T00:24:57;10.07;;;8.03;;
30458;SDS011;17254;50.976;7.034;2023-04-15T00:25:03;10.48;;;8.02;;
30458;SDS011;17254;50.976;7.034;2023-04-15T00:25:09;10.33;;;7.70;;
30458;SDS011;17254;50.976;7.034;2023-04-15T00:25:16;10.45;;;7.65;;
30458;SDS011;17254;50.976;7.034;2023-04-15T00:25:22;10.38;;;7.60;;
30458;SDS011;17254;50.976;7.034;2023-04-15T00:25:28;9.90;;;7.65;;
30458;SDS011;17254;50.976;7.034;2023-04-15T00:25:34;9.55;;;7.60;;
30458;SDS011;17254;50.976;7.034;2023-04-15T00:25:40;9.60;;;7.70;;
30458;SDS011;17254;50.976;7.034;2023-04-15T00:25:46;9.55;;;7.78;;
30458;SDS011;17254;50.976;7.034;2023-04-15T00:25:52;9.60;;;7.90;;
30458;SDS011;17254;50.976;7.034;2023-04-15T00:25:58;9.93;;;8.00;;
30458;SDS011;17254;50.976;7.034;2023-04-15T00:26:04;10.47;;;8.07;;
30458;SDS011;17254;50.976;7.034;2023-04-15T00:26:09;11.02;;;8.27;;
30458;SDS011;17254;50.976;7.034;2023-04-15T00:26:16;11.40;;;8.27;;
30458;SDS011;17254;50.976;7.034;2023-04-15T00:26:23;11.00;;;8.06;;
30458;SDS011;17254;50.976;7.034;2023-04-15T00:26:29;10.65;;;7.97;;
30458;SDS011;17254;50.976;7.034;2023-04-15T00:26:36;10.32;;;8.10;;
30458;SDS011;17254;50.976;7.034;2023-04-15T00:26:43;10.20;;;7.94;;
30458;SDS011;17254;50.976;7.034;2023-04-15T00:26:48;10.18;;;8.05;;
30458;SDS011;17254;50.976;7.034;2023-04-15T00:26:54;10.13;;;8.07;;
30458;SDS011;17254;50.976;7.034;2023-04-15T00:27:00;10.60;;;8.23;;
30458;SDS011;17254;50.976;7.034;2023-04-15T00:27:06;10.73;;;8.10;;
30458;SDS011;17254;50.976;7.034;2023-04-15T00:27:12;10.32;;;7.85;;
30458;SDS011;17254;50.976;7.034;2023-04-15T00:27:18;10.40;;;7.65;;
30458;SDS011;17254;50.976;7.034;2023-04-15T00:27:24;11.03;;;7.60;;
30458;SDS011;17254;50.976;7.034;2023-04-15T00:27:30;11.27;;;7.45;;
30458;SDS011;17254;50.976;7.034;2023-04-15T00:27:36;10.68;;;7.57;;
30458;SDS011;17254;50.976;7.034;2023-04-15T00:27:42;10.38;;;7.95;;
30458;SDS011;17254;50.976;7.034;2023-04-15T00:27:48;9.95;;;8.07;;
30458;SDS011;17254;50.976;7.034;2023-04-15T00:27:54;9.02;;;8.02;;
30458;SDS011;17254;50.976;7.034;2023-04-15T00:28:01;8.84;;;7.94;;
30458;SDS011;17254;50.976;7.034;2023-04-15T00:28:08;8.88;;;7.78;;
30458;SDS011;17254;50.976;7.034;2023-04-15T00:28:14;8.98;;;7.63;;
30458;SDS011;17254;50.976;7.034;2023-04-15T00:28:21;9.80;;;7.68;;
30458;SDS011;17254;50.976;7.034;2023-04-15T00:28:26;11.00;;;7.75;;
30458;SDS011;17254;50.976;7.034;2023-04-15T00:28:32;10.70;;;7.90;;
30458;SDS011;17254;50.976;7.034;2023-04-15T00:28:38;10.48;;;7.90;;
30458;SDS011;17254;50.976;7.034;2023-04-15T00:28:44;10.15;;;7.68;;
30458;SDS011;17254;50.976;7.034;2023-04-15T00:28:50;9.25;;;7.60;;
30458;SDS011;17254;50.976;7.034;2023-04-15T00:28:59;8.27;;;7.43;;
30458;SDS011;17254;50.976;7.034;2023-04-15T00:29:05;10.09;;;7.59;;
30458;SDS011;17254;50.976;7.034;2023-04-15T00:29:11;9.88;;;7.55;;
30458;SDS011;17254;50.976;7.034;2023-04-15T00:29:17;9.65;;;7.47;;
30458;SDS011;17254;50.976;7.034;2023-04-15T00:29:23;9.73;;;7.35;;
30458;SDS011;17254;50.976;7.034;2023-04-15T00:29:29;8.73;;;7.18;;
30458;SDS011;17254;50.976;7.034;2023-04-15T00:29:36;9.10;;;7.24;;
30458;SDS011;17254;50.976;7.034;2023-04-15T00:29:42;9.68;;;7.25;;
30458;SDS011;17254;50.976;7.034;2023-04-15T00:29:49;10.70;;;7.38;;
30458;SDS011;17254;50.976;7.034;2023-04-15T00:29:55;11.33;;;7.60;;
30458;SDS011;17254;50.976;7.034;2023-04-15T00:30:01;11.02;;;7.63;;
30458;SDS011;17254;50.976;7.034;2023-04-15T00:30:08;11.25;;;7.50;;
30458;SDS011;17254;50.976;7.034;2023-04-15T00:30:14;11.23;;;7.60;;
30458;SDS011;17254;50.976;7.034;2023-04-15T00:30:21;11.05;;;7.85;;
30458;SDS011;17254;50.976;7.034;2023-04-15T00:30:28;11.07;;;7.87;;
30458;SDS011;17254;50.976;7.034;2023-04-15T00:30:33;10.95;;;7.82;;
30458;SDS011;17254;50.976;7.034;2023-04-15T00:30:39;10.02;;;7.82;;
30458;SDS011;17254;50.976;7.034;2023-04-15T00:30:45;10.02;;;7.90;;
30458;SDS011;17254;50.976;7.034;2023-04-15T00:30:51;9.70;;;7.78;;
30458;SDS011;17254;50.976;7.034;2023-04-15T00:30:57;9.73;;;7.93;;
30458;SDS011;17254;50.976;7.034;2023-04-15T00:31:03;9.68;;;8.02;;
30458;SDS011;17254;50.976;7.034;2023-04-15T00:31:09;9.20;;;8.07;;
30458;SDS011;17254;50.976;7.034;2023-04-15T00:31:16;9.12;;;7.98;;
30458;SDS011;17254;50.976;7.034;2023-04-15T00:31:22;9.57;;;8.07;;
30458;SDS011;17254;50.976;7.034;2023-04-15T00:31:28;9.45;;;7.97;;
30458;SDS011;17254;50.976;7.034;2023-04-15T00:31:35;9.90;;;8.20;;
30458;SDS011;17254;50.976;7.034;2023-04-15T00:31:41;10.07;;;8.13;;
30458;SDS011;17254;50.976;7.034;2023-04-15T00:31:48;9.80;;;8.40;;
30458;SDS011;17254;50.976;7.034;2023-04-15T00:31:55;9.60;;;8.13;;
30458;SDS011;17254;50.976;7.034;2023-04-15T00:32:01;10.73;;;8.20;;
30458;SDS011;17254;50.976;7.034;2023-04-15T00:32:07;10.35;;;7.93;;
30458;SDS011;17254;50.976;7.034;2023-04-15T00:32:13;9.67;;;7.63;;
30458;SDS011;17254;50.976;7.034;2023-04-15T00:32:19;9.70;;;7.50;;
30458;SDS011;17254;50.976;7.034;2023-04-15T00:32:25;9.32;;;7.47;;
30458;SDS011;17254;50.976;7.034;2023-04-15T00:32:32;8.06;;;7.22;;
30458;SDS011;17254;50.976;7.034;2023-04-15T00:32:38;8.88;;;7.63;;
30458;SDS011;17254;50.976;7.034;2023-04-15T00:32:45;8.84;;;7.68;;
30458;SDS011;17254;50.976;7.034;2023-04-15T00:32:51;8.70;;;7.50;;
30458;SDS011;17254;50.976;7.034;2023-04-15T00:32:59;9.72;;;7.85;;
30458;SDS011;17254;50.976;7.034;2023-04-15T00:33:06;9.84;;;7.86;;
30458;SDS011;17254;50.976;7.034;2023-04-15T00:33:12;9.55;;;7.80;;
30458;SDS011;17254;50.976;7.034;2023-04-15T00:33:18;9.93;;;7.93;;
30458;SDS011;17254;50.976;7.034;2023-04-15T00:33:25;9.94;;;7.90;;
30458;SDS011;17254;50.976;7.034;2023-04-15T00:33:31;8.83;;;7.53;;
30458;SDS011;17254;50.976;7.034;2023-04-15T00:33:37;8.63;;;7.50;;
30458;SDS011;17254;50.976;7.034;2023-04-15T00:33:44;8.57;;;7.55;;
30458;SDS011;17254;50.976;7.034;2023-04-15T00:33:50;8.52;;;7.57;;
30458;SDS011;17254;50.976;7.034;2023-04-15T00:33:56;8.40;;;7.50;;
30458;SDS011;17254;50.976;7.034;2023-04-15T00:34:03;8.80;;;7.70;;
30458;SDS011;17254;50.976;7.034;2023-04-15T00:34:09;8.88;;;7.72;;
30458;SDS011;17254;50.976;7.034;2023-04-15T00:34:15;8.90;;;7.57;;
30458;SDS011;17254;50.976;7.034;2023-04-15T00:34:21;8.70;;;7.47;;
30458;SDS011;17254;50.976;7.034;2023-04-15T00:34:28;8.78;;;7.32;;
30458;SDS011;17254;50.976;7.034;2023-04-15T00:34:34;8.55;;;7.13;;
30458;SDS011;17254;50.976;7.034;2023-04-15T00:34:40;8.87;;;6.93;;
30458;SDS011;17254;50.976;7.034;2023-04-15T00:34:46;8.70;;;7.00;;
30458;SDS011;17254;50.976;7.034;2023-04-15T00:34:52;9.23;;;7.20;;
30458;SDS011;17254;50.976;7.034;2023-04-15T00:34:58;9.57;;;7.20;;
30458;SDS011;17254;50.976;7.034;2023-04-15T00:35:04;9.18;;;7.38;;
30458;SDS011;17254;50.976;7.034;2023-04-15T00:35:10;9.40;;;7.64;;
30458;SDS011;17254;50.976;7.034;2023-04-15T00:35:16;9.30;;;7.70;;
30458;SDS011;17254;50.976;7.034;2023-04-15T00:35:23;8.88;;;7.60;;
30458;SDS011;17254;50.976;7.034;2023-04-15T00:35:29;8.67;;;7.60;;
30458;SDS011;17254;50.976;7.034;2023-04-15T00:35:36;9.50;;;7.50;;
30458;SDS011;17254;50.976;7.034;2023-04-15T00:35:42;8.95;;;7.60;;
30458;SDS011;17254;50.976;7.034;2023-04-15T00:35:48;9.02;;;7.50;;
30458;SDS011;17254;50.976;7.034;2023-04-15T00:35:56;9.80;;;7.73;;
30458;SDS011;17254;50.976;7.034;2023-04-15T00:36:03;9.28;;;7.68;;
30458;SDS011;17254;50.976;7.034;2023-04-15T00:36:10;8.86;;;7.48;;
30458;SDS011;17254;50.976;7.034;2023-04-15T00:36:16;9.18;;;7.43;;
30458;SDS011;17254;50.976;7.034;2023-04-15T00:36:22;9.52;;;7.20;;
30458;SDS011;17254;50.976;7.034;2023-04-15T00:36:29;9.48;;;7.36;;
30458;SDS011;17254;50.976;7.034;2023-04-15T00:36:35;9.73;;;7.53;;
30458;SDS011;17254;50.976;7.034;2023-04-15T00:36:41;10.27;;;7.78;;
30458;SDS011;17254;50.976;7.034;2023-04-15T00:36:48;10.00;;;7.85;;
30458;SDS011;17254;50.976;7.034;2023-04-15T00:36:54;10.36;;;8.18;;
30458;SDS011;17254;50.976;7.034;2023-04-15T00:37:01;10.64;;;8.28;;
30458;SDS011;17254;50.976;7.034;2023-04-15T00:37:07;10.80;;;8.30;;
30458;SDS011;17254;50.976;7.034;2023-04-15T00:37:14;10.38;;;8.22;;
30458;SDS011;17254;50.976;7.034;2023-04-15T00:37:19;9.93;;;8.15;;
30458;SDS011;17254;50.976;7.034;2023-04-15T00:37:25;9.18;;;7.80;;
30458;SDS011;17254;50.976;7.034;2023-04-15T00:37:31;9.35;;;7.70;;
30458;SDS011;17254;50.976;7.034;2023-04-15T00:37:39;8.92;;;7.62;;
30458;SDS011;17254;50.976;7.034;2023-04-15T00:37:45;8.70;;;7.53;;
30458;SDS011;17254;50.976;7.034;2023-04-15T00:37:50;9.05;;;7.53;;
30458;SDS011;17254;50.976;7.034;2023-04-15T00:37:56;8.90;;;7.60;;